Aeroporto :
LOGIN :

Iscrizione | Disclaimer

   EN    FR    IT 

 










Sommario :    VFR   VFR Marginale   IFR   IFR Intensivo   IFR Molto Intensivo
Visibilità : 
Base nubi : 
>= 8 km
>= 3000ft
5 / 8 km
1000 / 3000 ft
1500m / 5 km
500 / 1000 ft
800 / 1500m
200 / 500 ft
< 800m
< 200 ft
Simboli :   Temporali  Nebbia  Neve Forte  Precipitazioni Forti  Vento > 20 kt
SIGMETs :   Varie  Temporali  Ghiacco  Turbolenza  Onda orograficha  Ceneri Vulcaniche






- Altitudine del aeroporto : 3368 ft


LSGC - Les Eplatures

ULTIMO METAR :
  • 231420Z AUTO 32006KT 280V020 9999 FEW033 SCT045 11/07 Q1017

METARs OBSOLETI :
  • 231350Z 23005KT 160V270 9999 BKN022 13/07 Q1017
  • 231320Z 21003KT 170V250 9999 SCT023 13/08 Q1017
  • 231250Z 21004KT 170V260 9999 BKN024 11/08 Q1018
  • 231220Z AUTO 17003KT 130V220 9999 FEW013 11/09 Q1018
  • 231150Z 23003KT 170V270 9999 FEW013 BKN044 10/08 Q1018 RERA
  • 231120Z 28004KT 230V300 9999 BKN014 BKN029 BKN033 10/08 Q1018
  • 231050Z VRB03KT 9999 -RA BKN014 BKN023 10/08 Q1018
  • 231020Z VRB03KT 9000 -RA BKN013 BKN018 10/07 Q1018
  • 230950Z AUTO 32003KT 260V020 9999 SCT013 OVC015 10/08 Q1018

TAF TAF LSGC
Valido dal 23 a 15 ore il 24 a 00 ore UTC


231425Z 2315/2324 VRB02KT 9999 BKN020
TEMPO 2315/2318 SHRA



MetMap, La meteo Aeronautica in un colpo d'occhio ! - Copyright ORBIFLY Dicembre 2007 - Disclaimer

ORBIFLY MET'MAP TEAM :

Programmazione e sviluppo : Alexandra Zaïnal
Concezione : Baudouin d'Aumeries
Supporto tecnico e logistico : Manuel Goepfert
Aiuto : Marc-Olivier Méhu
Aiuto per la traduzione : Arnaldo La Scala




FONTI E CREDITI :

   NOAA